createdAt,value
2022-11-30T00:01:51.433Z,25.70
2022-11-30T00:04:21.586Z,18.90
2022-11-30T00:06:49.514Z,20.33
2022-11-30T00:09:17.285Z,20.10
2022-11-30T00:11:44.872Z,17.43
2022-11-30T00:14:14.351Z,19.70
2022-11-30T00:16:42.062Z,19.83
2022-11-30T00:19:09.736Z,18.13
2022-11-30T00:21:37.585Z,23.87
2022-11-30T00:24:08.824Z,21.17
2022-11-30T00:26:37.137Z,22.23
2022-11-30T00:29:06.199Z,17.27
2022-11-30T00:31:35.789Z,17.23
2022-11-30T00:34:04.136Z,20.50
2022-11-30T00:36:31.843Z,17.20
2022-11-30T00:38:59.448Z,18.30
2022-11-30T00:41:27.094Z,22.50
2022-11-30T00:43:54.864Z,16.93
2022-11-30T00:46:22.548Z,15.40
2022-11-30T00:48:52.156Z,18.57
2022-11-30T00:51:20.352Z,20.87
2022-11-30T00:53:48.514Z,24.20
2022-11-30T00:56:18.837Z,20.03
2022-11-30T00:58:47.075Z,39.87
2022-11-30T01:01:17.083Z,16.93
2022-11-30T01:03:51.138Z,22.40
2022-11-30T01:06:48.032Z,24.20
2022-11-30T01:09:16.234Z,26.13
2022-11-30T01:11:46.353Z,17.77
2022-11-30T01:14:16.669Z,17.53
2022-11-30T01:16:44.844Z,17.47
2022-11-30T01:19:25.349Z,17.63
2022-11-30T01:22:04.963Z,23.83
2022-11-30T01:24:39.814Z,22.57
2022-11-30T01:27:08.284Z,29.33
2022-11-30T01:29:35.978Z,25.60
2022-11-30T01:32:07.184Z,25.90
2022-11-30T01:34:43.224Z,23.10
2022-11-30T01:37:12.187Z,14.60
2022-11-30T01:39:49.905Z,27.93
2022-11-30T01:42:23.091Z,22.83
2022-11-30T01:45:02.010Z,28.23
2022-11-30T01:47:34.018Z,21.63
2022-11-30T01:50:07.738Z,25.20
2022-11-30T01:52:46.019Z,19.57
2022-11-30T01:55:21.463Z,22.33
2022-11-30T01:57:58.209Z,21.30
2022-11-30T02:00:30.614Z,16.57
2022-11-30T02:03:07.355Z,33.40
2022-11-30T02:05:39.480Z,20.60
2022-11-30T02:08:25.999Z,20.03
2022-11-30T02:11:07.639Z,20.80
2022-11-30T02:14:01.041Z,17.80
2022-11-30T02:16:42.169Z,17.70
2022-11-30T02:19:46.295Z,23.23
2022-11-30T02:22:25.429Z,24.80
2022-11-30T02:25:09.708Z,23.30
2022-11-30T02:28:00.198Z,22.00
2022-11-30T02:30:40.229Z,21.00
2022-11-30T02:33:26.619Z,18.20
2022-11-30T02:35:59.112Z,19.30
2022-11-30T02:38:31.040Z,18.23
2022-11-30T02:41:22.005Z,20.40
2022-11-30T02:43:57.236Z,22.00
2022-11-30T02:46:44.585Z,19.90
2022-11-30T02:49:24.972Z,19.97
2022-11-30T02:51:57.728Z,23.87
2022-11-30T02:54:29.607Z,23.13
2022-11-30T02:57:00.852Z,23.50
2022-11-30T02:59:45.675Z,25.80
2022-11-30T03:02:21.551Z,18.83
2022-11-30T03:05:05.215Z,35.90
2022-11-30T03:07:35.595Z,23.67
2022-11-30T03:10:08.462Z,21.27
2022-11-30T03:12:36.460Z,23.13
2022-11-30T03:15:04.754Z,22.20
2022-11-30T03:17:34.143Z,23.83
2022-11-30T03:20:02.824Z,26.77
2022-11-30T03:22:32.254Z,17.43
2022-11-30T03:25:01.757Z,24.53
2022-11-30T03:27:32.977Z,24.43
2022-11-30T03:30:00.683Z,19.40
2022-11-30T03:32:32.290Z,20.33
2022-11-30T03:35:01.436Z,24.07
2022-11-30T03:37:39.722Z,19.97
2022-11-30T03:40:11.504Z,21.70
2022-11-30T03:42:43.195Z,17.40
2022-11-30T03:45:17.588Z,21.13
2022-11-30T03:47:56.774Z,26.67
2022-11-30T03:50:27.715Z,22.13
2022-11-30T03:53:05.354Z,19.37
2022-11-30T03:55:36.475Z,21.33
2022-11-30T03:58:04.259Z,23.93
2022-11-30T04:00:33.326Z,22.53
2022-11-30T04:03:01.068Z,18.20
2022-11-30T04:05:30.559Z,20.47
2022-11-30T04:07:58.616Z,18.83
2022-11-30T04:10:28.616Z,31.60
2022-11-30T04:13:03.109Z,21.20
2022-11-30T04:15:33.068Z,21.93
2022-11-30T04:18:00.884Z,18.17
2022-11-30T04:20:30.226Z,21.80
2022-11-30T04:23:00.953Z,23.10
2022-11-30T04:25:29.147Z,23.10
2022-11-30T04:27:58.676Z,27.87
2022-11-30T04:30:26.476Z,23.87
2022-11-30T04:32:54.234Z,25.40
2022-11-30T04:35:22.407Z,19.80
2022-11-30T04:37:54.312Z,23.97
2022-11-30T04:40:22.499Z,21.60
2022-11-30T04:42:50.059Z,18.90
2022-11-30T04:45:18.921Z,21.07
2022-11-30T04:47:51.705Z,27.20
2022-11-30T04:50:19.811Z,23.50
2022-11-30T04:52:48.257Z,31.47
2022-11-30T04:55:19.459Z,26.63
2022-11-30T04:57:49.163Z,35.73
2022-11-30T05:00:19.242Z,27.57
2022-11-30T05:02:52.497Z,19.13
2022-11-30T05:05:21.210Z,20.50
2022-11-30T05:07:53.018Z,24.17
2022-11-30T05:13:05.827Z,26.07
2022-11-30T05:15:33.564Z,23.20
2022-11-30T05:18:01.989Z,30.03
2022-11-30T05:20:30.158Z,22.83
2022-11-30T05:22:58.587Z,24.70
2022-11-30T05:25:27.904Z,29.63
2022-11-30T05:27:59.441Z,22.70
2022-11-30T05:30:31.673Z,30.20
2022-11-30T05:33:02.960Z,28.67
2022-11-30T05:35:30.824Z,28.20
2022-11-30T05:38:00.152Z,27.90
2022-11-30T05:40:32.354Z,21.37
2022-11-30T05:43:01.009Z,30.03
2022-11-30T05:45:29.518Z,33.03
2022-11-30T05:47:57.617Z,26.53
2022-11-30T05:50:29.319Z,25.50
2022-11-30T05:53:01.125Z,23.87
2022-11-30T05:55:32.332Z,31.50
2022-11-30T05:58:02.507Z,27.90
2022-11-30T06:00:33.177Z,34.13
2022-11-30T06:03:01.119Z,31.80
2022-11-30T06:05:29.635Z,29.97
2022-11-30T06:08:00.591Z,25.17
2022-11-30T06:10:30.165Z,24.80
2022-11-30T06:12:58.024Z,29.80
2022-11-30T06:15:26.129Z,28.80
2022-11-30T06:17:58.252Z,24.07
2022-11-30T06:20:26.955Z,34.20
2022-11-30T06:22:57.608Z,25.27
2022-11-30T06:25:26.521Z,21.37
2022-11-30T06:28:03.480Z,28.00
2022-11-30T06:30:31.643Z,27.30
2022-11-30T06:33:03.969Z,21.20
2022-11-30T06:35:31.758Z,28.73
2022-11-30T06:38:01.387Z,27.30
2022-11-30T06:40:29.716Z,30.37
2022-11-30T06:43:00.398Z,30.03
2022-11-30T06:45:28.478Z,29.20
2022-11-30T06:47:56.937Z,32.10
2022-11-30T06:50:25.281Z,29.60
2022-11-30T06:53:02.055Z,26.17
2022-11-30T06:55:32.970Z,29.93
2022-11-30T06:58:07.631Z,26.73
2022-11-30T07:00:35.796Z,32.00
2022-11-30T07:03:07.232Z,31.83
2022-11-30T07:05:43.474Z,29.07
2022-11-30T07:08:11.347Z,30.80
2022-11-30T07:10:40.901Z,31.70
2022-11-30T07:13:30.795Z,29.27
2022-11-30T07:16:01.070Z,22.70
2022-11-30T07:18:32.087Z,26.70
2022-11-30T07:21:19.331Z,30.57
2022-11-30T07:24:07.774Z,26.27
2022-11-30T07:26:38.366Z,25.60
2022-11-30T07:29:09.908Z,25.63
2022-11-30T07:31:42.201Z,21.00
2022-11-30T07:34:23.844Z,23.20
2022-11-30T07:36:52.341Z,30.13
2022-11-30T07:39:41.639Z,29.43
2022-11-30T07:42:09.320Z,20.33
2022-11-30T07:44:38.486Z,20.77
2022-11-30T07:47:06.143Z,28.67
2022-11-30T07:49:33.753Z,24.90
2022-11-30T07:52:04.470Z,24.80
2022-11-30T07:54:32.075Z,26.53
2022-11-30T07:57:02.089Z,24.10
2022-11-30T07:59:30.297Z,28.93
2022-11-30T08:02:00.399Z,27.60
2022-11-30T08:04:28.307Z,34.93
2022-11-30T08:06:56.000Z,27.23
2022-11-30T08:09:23.789Z,30.77
2022-11-30T08:11:51.435Z,29.47
2022-11-30T08:14:19.131Z,24.30
2022-11-30T08:16:47.615Z,24.73
2022-11-30T08:19:16.985Z,25.53
2022-11-30T08:21:44.693Z,25.73
2022-11-30T08:24:21.189Z,24.83
2022-11-30T08:26:52.979Z,19.97
2022-11-30T08:29:20.999Z,29.10
2022-11-30T08:31:48.780Z,20.90
2022-11-30T08:34:27.133Z,24.30
2022-11-30T08:36:55.376Z,23.33
2022-11-30T08:39:23.009Z,36.00
2022-11-30T08:41:52.197Z,31.57
2022-11-30T08:44:21.338Z,23.33
2022-11-30T08:46:51.906Z,25.00
2022-11-30T08:49:23.783Z,26.73
2022-11-30T08:52:16.441Z,25.13
2022-11-30T08:54:47.476Z,20.83
2022-11-30T08:57:16.260Z,26.97
2022-11-30T08:59:44.294Z,28.50
2022-11-30T09:02:13.908Z,25.60
2022-11-30T09:04:43.211Z,26.67
2022-11-30T09:07:13.597Z,27.97
2022-11-30T09:09:41.883Z,23.90
2022-11-30T09:12:09.820Z,27.07
2022-11-30T09:14:37.542Z,29.93
2022-11-30T09:17:05.375Z,25.83
2022-11-30T09:19:34.292Z,25.13
2022-11-30T09:22:03.472Z,25.37
2022-11-30T09:24:31.430Z,26.23
2022-11-30T09:27:00.226Z,27.30
2022-11-30T09:29:27.872Z,28.90
2022-11-30T09:31:58.109Z,32.23
2022-11-30T09:34:25.744Z,30.97
2022-11-30T09:36:53.445Z,32.60
2022-11-30T09:39:23.045Z,25.50
2022-11-30T09:42:17.650Z,28.70
2022-11-30T09:44:54.266Z,29.90
2022-11-30T09:47:40.714Z,23.10
2022-11-30T09:50:15.599Z,27.07
2022-11-30T09:52:47.670Z,26.83
2022-11-30T09:55:24.029Z,35.17
2022-11-30T09:57:55.072Z,32.20
2022-11-30T10:00:25.096Z,29.83
2022-11-30T10:02:54.892Z,31.73
2022-11-30T10:05:26.875Z,29.63
2022-11-30T10:08:11.827Z,28.20
2022-11-30T10:10:44.168Z,22.03
2022-11-30T10:13:27.782Z,23.27
2022-11-30T10:16:08.198Z,24.50
2022-11-30T10:18:45.787Z,23.33
2022-11-30T10:21:27.609Z,19.80
2022-11-30T10:24:11.523Z,21.20
2022-11-30T10:26:55.801Z,26.43
2022-11-30T10:29:31.780Z,25.53
2022-11-30T10:32:01.745Z,20.73
2022-11-30T10:34:35.180Z,26.47
2022-11-30T10:37:12.083Z,23.23
2022-11-30T10:39:44.789Z,23.30
2022-11-30T10:42:21.517Z,18.73
2022-11-30T10:45:00.092Z,15.27
2022-11-30T10:47:31.244Z,18.30
2022-11-30T10:49:59.129Z,16.67
2022-11-30T10:52:29.893Z,20.07
2022-11-30T10:55:04.237Z,26.83
2022-11-30T10:57:34.367Z,17.33
2022-11-30T11:00:07.682Z,17.67
2022-11-30T11:02:40.097Z,46.73
2022-11-30T11:05:20.656Z,20.30
2022-11-30T11:08:02.753Z,17.77
2022-11-30T11:10:35.568Z,18.17
2022-11-30T11:13:06.192Z,15.57
2022-11-30T11:15:35.568Z,16.90
2022-11-30T11:18:28.924Z,17.67
2022-11-30T11:21:06.180Z,16.53
2022-11-30T11:23:37.638Z,14.13
2022-11-30T11:26:06.425Z,18.53
2022-11-30T11:28:37.257Z,16.23
2022-11-30T11:31:19.741Z,15.80
2022-11-30T11:33:55.125Z,16.93
2022-11-30T11:36:28.782Z,16.90
2022-11-30T11:38:57.194Z,17.60
2022-11-30T11:41:28.115Z,18.63
2022-11-30T11:44:02.436Z,20.40
2022-11-30T11:46:31.858Z,22.40
2022-11-30T11:49:02.266Z,22.63
2022-11-30T11:51:32.389Z,17.47
2022-11-30T11:54:06.253Z,24.93
2022-11-30T11:56:36.483Z,19.23
2022-11-30T11:59:14.653Z,22.80
2022-11-30T12:01:51.197Z,20.47
2022-11-30T12:04:41.180Z,14.80
2022-11-30T12:07:18.492Z,18.77
2022-11-30T12:09:58.356Z,14.10
2022-11-30T12:12:26.365Z,14.03
2022-11-30T12:14:57.902Z,15.93
2022-11-30T12:17:40.738Z,18.37
2022-11-30T12:20:20.652Z,15.77
2022-11-30T12:23:13.548Z,25.03
2022-11-30T12:25:47.972Z,22.17
2022-11-30T12:28:25.889Z,21.27
2022-11-30T12:31:12.065Z,24.43
2022-11-30T12:33:58.488Z,19.73
2022-11-30T12:36:46.884Z,17.93
2022-11-30T12:39:26.477Z,19.37
2022-11-30T12:41:59.523Z,16.33
2022-11-30T12:44:42.406Z,21.83
2022-11-30T12:47:27.044Z,19.57
2022-11-30T12:50:11.809Z,22.60
2022-11-30T12:52:49.225Z,24.53
2022-11-30T12:55:34.980Z,27.97
2022-11-30T12:58:13.235Z,27.57
2022-11-30T13:00:50.865Z,20.47
2022-11-30T13:03:59.633Z,27.17
2022-11-30T13:06:33.604Z,32.30
2022-11-30T13:09:07.628Z,28.20
2022-11-30T13:11:38.432Z,26.13
2022-11-30T13:14:10.859Z,24.97
2022-11-30T13:16:40.459Z,25.13
2022-11-30T13:19:25.974Z,21.27
2022-11-30T13:22:00.445Z,27.33
2022-11-30T13:24:35.529Z,26.03
2022-11-30T13:27:11.355Z,22.53
2022-11-30T13:30:04.080Z,23.40
2022-11-30T13:32:57.523Z,24.30
2022-11-30T13:35:43.612Z,24.40
2022-11-30T13:41:09.413Z,24.80
2022-11-30T13:43:41.705Z,20.47
2022-11-30T13:46:16.780Z,20.63
2022-11-30T13:48:45.980Z,15.87
2022-11-30T13:51:36.417Z,17.50
2022-11-30T13:54:38.731Z,21.27
2022-11-30T13:57:20.282Z,21.30
2022-11-30T13:59:52.858Z,16.70
2022-11-30T14:03:00.515Z,19.67
2022-11-30T14:05:40.258Z,21.13
2022-11-30T14:08:17.883Z,18.57
2022-11-30T14:10:47.347Z,21.43
2022-11-30T14:13:32.059Z,20.00
2022-11-30T14:16:02.822Z,27.23
2022-11-30T14:18:42.096Z,19.83
2022-11-30T14:21:20.738Z,22.17
2022-11-30T14:24:00.888Z,27.90
2022-11-30T14:26:31.583Z,18.37
2022-11-30T14:29:05.184Z,22.00
2022-11-30T14:31:38.293Z,23.50
2022-11-30T14:34:14.124Z,18.60
2022-11-30T14:36:48.770Z,17.37
2022-11-30T14:39:35.133Z,22.17
2022-11-30T14:42:05.139Z,22.03
2022-11-30T14:44:42.817Z,18.83
2022-11-30T14:47:16.776Z,19.33
2022-11-30T14:49:52.140Z,21.90
2022-11-30T14:52:39.659Z,21.27
2022-11-30T14:55:24.851Z,22.20
2022-11-30T14:58:06.942Z,23.50
2022-11-30T15:00:39.294Z,31.70
2022-11-30T15:03:21.964Z,21.20
2022-11-30T15:05:56.444Z,17.23
2022-11-30T15:08:47.580Z,19.90
2022-11-30T15:11:19.468Z,16.17
2022-11-30T15:13:49.671Z,13.73
2022-11-30T15:16:20.698Z,17.40
2022-11-30T15:18:52.632Z,17.80
2022-11-30T15:21:25.382Z,19.80
2022-11-30T15:23:55.702Z,18.90
2022-11-30T15:26:30.867Z,14.20
2022-11-30T15:29:02.937Z,19.10
2022-11-30T15:31:36.055Z,14.73
2022-11-30T15:34:07.196Z,14.97
2022-11-30T15:36:38.000Z,12.37
2022-11-30T15:39:08.110Z,18.60
2022-11-30T15:41:37.580Z,17.97
2022-11-30T15:44:07.029Z,12.90
2022-11-30T15:46:42.728Z,14.63
2022-11-30T15:49:21.169Z,11.40
2022-11-30T15:51:59.377Z,9.93
2022-11-30T15:54:47.719Z,13.10
2022-11-30T15:57:17.817Z,11.63
2022-11-30T16:00:03.852Z,14.23
2022-11-30T16:02:34.540Z,9.50
2022-11-30T16:05:22.477Z,9.33
2022-11-30T16:07:53.598Z,17.90
2022-11-30T16:10:24.265Z,11.80
2022-11-30T16:12:56.422Z,11.63
2022-11-30T16:15:26.655Z,12.77
2022-11-30T16:18:03.321Z,11.33
2022-11-30T16:20:32.068Z,11.40
2022-11-30T16:23:05.307Z,10.90
2022-11-30T16:25:34.096Z,11.00
2022-11-30T16:28:04.588Z,12.20
2022-11-30T16:30:32.789Z,17.60
2022-11-30T16:33:03.032Z,9.93
2022-11-30T16:35:36.762Z,13.43
2022-11-30T16:38:05.038Z,11.70
2022-11-30T16:40:38.579Z,9.53
2022-11-30T16:43:10.953Z,11.50
2022-11-30T16:45:41.333Z,12.70
2022-11-30T16:48:09.203Z,13.70
2022-11-30T16:50:37.725Z,16.53
2022-11-30T16:53:06.928Z,13.73
2022-11-30T16:55:37.716Z,12.83
2022-11-30T16:58:06.390Z,13.23
2022-11-30T17:00:36.285Z,12.50
2022-11-30T17:03:09.326Z,14.10
2022-11-30T17:05:38.068Z,17.30
2022-11-30T17:08:06.393Z,12.67
2022-11-30T17:10:34.573Z,11.70
2022-11-30T17:13:02.431Z,11.20
2022-11-30T17:15:30.250Z,12.70
2022-11-30T17:17:59.457Z,15.10
2022-11-30T17:20:28.611Z,13.43
2022-11-30T17:22:56.316Z,12.63
2022-11-30T17:25:25.170Z,16.63
2022-11-30T17:27:53.211Z,14.33
2022-11-30T17:30:23.753Z,14.97
2022-11-30T17:32:52.085Z,13.87
2022-11-30T17:35:22.057Z,12.90
2022-11-30T17:37:50.667Z,13.87
2022-11-30T17:40:18.488Z,17.10
2022-11-30T17:42:46.179Z,13.97
2022-11-30T17:45:14.254Z,12.00
2022-11-30T17:47:41.973Z,13.90
2022-11-30T17:50:11.503Z,10.70
2022-11-30T17:52:40.507Z,15.00
2022-11-30T17:55:09.090Z,15.00
2022-11-30T17:57:38.402Z,16.33
2022-11-30T18:00:07.984Z,14.60
2022-11-30T18:02:35.733Z,17.10
2022-11-30T18:05:03.441Z,14.10
2022-11-30T18:07:31.378Z,14.10
2022-11-30T18:10:01.757Z,16.53
2022-11-30T18:12:31.758Z,15.40
2022-11-30T18:15:01.696Z,16.10
2022-11-30T18:17:29.526Z,17.40
2022-11-30T18:19:57.477Z,15.93
2022-11-30T18:22:25.595Z,11.50
2022-11-30T18:24:53.336Z,15.73
2022-11-30T18:27:25.076Z,13.47
2022-11-30T18:29:52.995Z,15.83
2022-11-30T18:32:20.853Z,15.77
2022-11-30T18:34:49.740Z,15.43
2022-11-30T18:37:17.915Z,15.70
2022-11-30T18:39:45.802Z,16.63
2022-11-30T18:42:13.511Z,12.70
2022-11-30T18:44:45.253Z,13.23
2022-11-30T18:47:13.386Z,14.40
2022-11-30T18:49:41.024Z,14.87
2022-11-30T18:52:09.236Z,10.77
2022-11-30T18:54:37.202Z,13.67
2022-11-30T18:57:05.079Z,14.17
2022-11-30T18:59:33.215Z,13.70
2022-11-30T19:02:02.722Z,12.53
2022-11-30T19:04:31.075Z,13.60
2022-11-30T19:06:58.870Z,13.03
2022-11-30T19:09:29.251Z,18.07
2022-11-30T19:11:58.032Z,13.40
2022-11-30T19:14:28.886Z,15.70
2022-11-30T19:16:56.524Z,13.67
2022-11-30T19:19:26.875Z,15.20
2022-11-30T19:21:54.901Z,13.73
2022-11-30T19:24:22.675Z,16.10
2022-11-30T19:26:52.308Z,15.50
2022-11-30T19:29:20.236Z,14.03
2022-11-30T19:31:48.998Z,13.57
2022-11-30T19:34:16.619Z,15.83
2022-11-30T19:36:46.027Z,17.20
2022-11-30T19:39:19.396Z,13.10
2022-11-30T19:41:47.808Z,16.53
2022-11-30T19:44:18.561Z,14.07
2022-11-30T19:46:46.357Z,14.23
2022-11-30T19:49:14.049Z,14.20
2022-11-30T19:51:41.669Z,16.67
2022-11-30T19:54:10.675Z,22.40
2022-11-30T19:56:39.098Z,19.83
2022-11-30T19:59:06.821Z,15.63
2022-11-30T20:01:35.477Z,15.73
2022-11-30T20:04:04.499Z,15.63
2022-11-30T20:06:34.586Z,16.23
2022-11-30T20:09:03.248Z,16.37
2022-11-30T20:11:32.900Z,16.90
2022-11-30T20:14:00.982Z,12.80
2022-11-30T20:16:30.166Z,16.10
2022-11-30T20:19:00.560Z,18.40
2022-11-30T20:21:31.550Z,13.90
2022-11-30T20:24:01.418Z,17.40
2022-11-30T20:26:34.264Z,15.90
2022-11-30T20:29:04.765Z,11.43
2022-11-30T20:31:35.712Z,12.83
2022-11-30T20:34:03.669Z,11.13
2022-11-30T20:36:31.638Z,12.97
2022-11-30T20:39:00.080Z,11.00
2022-11-30T20:41:28.722Z,10.93
2022-11-30T20:43:57.829Z,15.47
2022-11-30T20:46:28.055Z,13.00
2022-11-30T20:48:56.931Z,13.57
2022-11-30T20:51:31.657Z,11.10
2022-11-30T20:54:01.043Z,11.90
2022-11-30T20:56:29.133Z,9.87
2022-11-30T20:59:04.164Z,11.77
2022-11-30T21:01:31.975Z,12.43
2022-11-30T21:04:00.674Z,12.97
2022-11-30T21:06:28.597Z,13.10
2022-11-30T21:08:56.594Z,12.23
2022-11-30T21:11:24.578Z,11.10
2022-11-30T21:13:52.913Z,12.40
2022-11-30T21:16:28.300Z,16.50
2022-11-30T21:18:57.978Z,14.43
2022-11-30T21:21:28.033Z,12.93
2022-11-30T21:23:55.710Z,12.60
2022-11-30T21:26:25.666Z,12.83
2022-11-30T21:28:55.793Z,11.57
2022-11-30T21:31:25.368Z,11.80
2022-11-30T21:33:54.483Z,10.80
2022-11-30T21:36:23.138Z,12.47
2022-11-30T21:38:58.148Z,18.53
2022-11-30T21:41:31.025Z,14.07
2022-11-30T21:43:58.887Z,13.40
2022-11-30T21:46:28.739Z,10.60
2022-11-30T21:48:56.546Z,13.70
2022-11-30T21:51:26.484Z,15.37
2022-11-30T21:53:57.025Z,12.23
2022-11-30T21:56:26.629Z,13.30
2022-11-30T21:58:54.493Z,15.03
2022-11-30T22:01:27.016Z,13.07
2022-11-30T22:03:58.130Z,12.00
2022-11-30T22:06:28.300Z,12.83
2022-11-30T22:08:57.677Z,17.10
2022-11-30T22:11:25.816Z,12.93
2022-11-30T22:13:54.820Z,12.70
2022-11-30T22:16:24.358Z,18.03
2022-11-30T22:18:54.297Z,15.83
2022-11-30T22:21:25.290Z,14.20
2022-11-30T22:23:55.396Z,15.80
2022-11-30T22:26:26.719Z,16.90
2022-11-30T22:28:56.939Z,16.37
2022-11-30T22:31:26.559Z,15.03
2022-11-30T22:33:54.436Z,17.40
2022-11-30T22:36:25.420Z,16.63
2022-11-30T22:38:56.224Z,16.00
2022-11-30T22:41:26.456Z,17.73
2022-11-30T22:43:55.841Z,20.67
2022-11-30T22:46:25.241Z,18.80
2022-11-30T22:48:53.515Z,19.50
2022-11-30T22:51:25.961Z,19.53
2022-11-30T22:53:54.176Z,17.43
2022-11-30T22:56:23.725Z,18.70
2022-11-30T22:58:53.860Z,16.53
2022-11-30T23:01:23.702Z,17.07
2022-11-30T23:03:53.388Z,16.90
2022-11-30T23:06:22.208Z,18.03
2022-11-30T23:08:52.354Z,17.70
2022-11-30T23:11:23.264Z,21.77
2022-11-30T23:13:51.153Z,17.47
2022-11-30T23:16:20.006Z,16.10
2022-11-30T23:18:49.866Z,15.80
2022-11-30T23:21:20.099Z,16.20
2022-11-30T23:23:48.765Z,20.30
2022-11-30T23:26:19.906Z,23.10
2022-11-30T23:28:50.061Z,25.97
2022-11-30T23:31:34.652Z,16.17
2022-11-30T23:34:05.364Z,17.47
2022-11-30T23:36:33.460Z,21.43
2022-11-30T23:39:02.667Z,17.33
2022-11-30T23:41:31.898Z,18.80
2022-11-30T23:43:59.590Z,24.80
2022-11-30T23:46:27.572Z,20.83
2022-11-30T23:48:55.964Z,22.10
2022-11-30T23:51:24.750Z,26.43
2022-11-30T23:53:52.742Z,21.57
2022-11-30T23:56:22.304Z,21.73
2022-11-30T23:58:51.308Z,26.80
